No particular awareness of the weather is required.    There are no Weather-warnings


Meteo18 Weather Cam more information Meteo18 Weather Cam


Thunder radar more information blitzortung!


Rain radar more information rain snow radar


Visit our other weather sites:

Template documentation
and downloads

And another site



Weather Underground History page Text

Daily Summary for September 15, 2017 Units:  Both    English   Metric
« Previous Day
Next Day »
Daily Weekly Monthly Yearly Custom
  High: Low: Average:
Temperature: TemperatureC °F /  -17.8 °C 9.3 °F /  -12.6 °C 12 °F /  -11.1 °C
Dew Point: DewpointC °F /  -17.8 °C 5.1 °F /  -14.9 °C 8 °F /  -13.3 °C
Humidity: Humidity % 47 % 78 %
Wind Speed: WindSpeedKMH mph /  0 km/h - 2.6 mph /  4.2 km/h
Wind Gust: WindSpeedGustKMH mph /  0 km/h - -
Wind:- - WSW
Pressure: PressurehPa in /  0 hPa 1013.8 in /  34327.3 hPa -
Precipitation: 0.0 in /  0 mm    
Historical Graphs
 
 
Tabular Data for September 15, 2017
Time Temperature Dew Point Pressure Wind Wind Speed Wind Gust Humidity Rainfall Rate (Hourly)
TemperatureC °F /  -17.8 °C DewpointC °F /  -17.8 °C PressurehPa in /  0 hPa Calm     Humidity % HourlyPrecipMM in /  0 mm
00:02 10.1 °F /  -12.2 °C 7.5 °F /  -13.6 °C 1018.8 in /  34496.6 hPa Calm     84 % 0.0 in /  0 mm
00:07 10.1 °F /  -12.2 °C 7.5 °F /  -13.6 °C 1018.8 in /  34496.6 hPa Calm     84 % 0.0 in /  0 mm
00:12 10.1 °F /  -12.2 °C 7.5 °F /  -13.6 °C 1018.8 in /  34496.6 hPa Calm     84 % 0.0 in /  0 mm
00:17 10.1 °F /  -12.2 °C 7.5 °F /  -13.6 °C 1018.8 in /  34496.6 hPa Calm     84 % 0.0 in /  0 mm
00:22 10.1 °F /  -12.2 °C 7.5 °F /  -13.6 °C 1018.8 in /  34496.6 hPa Calm     84 % 0.0 in /  0 mm
00:32 10.1 °F /  -12.2 °C 7.7 °F /  -13.5 °C 1018.8 in /  34496.6 hPa Calm   3.2 mph /  5.1 km/h 85 % 0.0 in /  0 mm
00:42 10.0 °F /  -12.2 °C 7.6 °F /  -13.6 °C 1018.8 in /  34496.6 hPa Calm   4.8 mph /  7.7 km/h 85 % 0.0 in /  0 mm
00:47 10.1 °F /  -12.2 °C 7.7 °F /  -13.5 °C 1018.8 in /  34496.6 hPa SSW 1.6 mph /  2.6 km/h 3.2 mph /  5.1 km/h 85 % 0.0 in /  0 mm
00:52 10.3 °F /  -12.1 °C 7.5 °F /  -13.6 °C 1018.5 in /  34486.4 hPa SW 1.6 mph /  2.6 km/h 3.2 mph /  5.1 km/h 83 % 0.0 in /  0 mm
00:57 10.4 °F /  -12 °C 7.6 °F /  -13.6 °C 1018.5 in /  34486.4 hPa SSW 1.6 mph /  2.6 km/h 3.2 mph /  5.1 km/h 83 % 0.0 in /  0 mm
01:02 10.4 °F /  -12 °C 7.8 °F /  -13.4 °C 1018.5 in /  34486.4 hPa Calm   4.8 mph /  7.7 km/h 84 % 0.0 in /  0 mm
01:07 10.4 °F /  -12 °C 7.8 °F /  -13.4 °C 1018.5 in /  34486.4 hPa Calm   4.8 mph /  7.7 km/h 84 % 0.0 in /  0 mm
01:12 10.4 °F /  -12 °C 7.8 °F /  -13.4 °C 1018.5 in /  34486.4 hPa Calm   4.8 mph /  7.7 km/h 84 % 0.0 in /  0 mm
01:17 10.4 °F /  -12 °C 7.8 °F /  -13.4 °C 1018.5 in /  34486.4 hPa Calm   1.6 mph /  2.6 km/h 84 % 0.0 in /  0 mm
01:22 10.4 °F /  -12 °C 8.0 °F /  -13.3 °C 1018.2 in /  34476.3 hPa Calm   1.6 mph /  2.6 km/h 85 % 0.0 in /  0 mm
01:27 10.4 °F /  -12 °C 8.2 °F /  -13.2 °C 1018.2 in /  34476.3 hPa Calm   1.6 mph /  2.6 km/h 86 % 0.0 in /  0 mm
01:32 10.4 °F /  -12 °C 8.3 °F /  -13.2 °C 1018.2 in /  34476.3 hPa SSE 1.6 mph /  2.6 km/h 1.6 mph /  2.6 km/h 87 % 0.0 in /  0 mm
01:42 10.3 °F /  -12.1 °C 8.2 °F /  -13.2 °C 1018.2 in /  34476.3 hPa Calm   1.6 mph /  2.6 km/h 87 % 0.0 in /  0 mm
01:47 10.2 °F /  -12.1 °C 8.3 °F /  -13.2 °C 1018.2 in /  34476.3 hPa Calm   1.6 mph /  2.6 km/h 88 % 0.0 in /  0 mm
01:52 10.2 °F /  -12.1 °C 8.3 °F /  -13.2 °C 1018.2 in /  34476.3 hPa Calm     88 % 0.0 in /  0 mm
01:57 10.1 °F /  -12.2 °C 8.2 °F /  -13.2 °C 1018.2 in /  34476.3 hPa Calm   1.6 mph /  2.6 km/h 88 % 0.0 in /  0 mm
02:02 10.1 °F /  -12.2 °C 8.4 °F /  -13.1 °C 1018.2 in /  34476.3 hPa Calm   1.6 mph /  2.6 km/h 89 % 0.0 in /  0 mm
02:07 10.1 °F /  -12.2 °C 8.4 °F /  -13.1 °C 1017.8 in /  34462.7 hPa SW 1.6 mph /  2.6 km/h 1.6 mph /  2.6 km/h 89 % 0.0 in /  0 mm
02:12 10.1 °F /  -12.2 °C 8.5 °F /  -13.1 °C 1017.8 in /  34462.7 hPa Calm   3.2 mph /  5.1 km/h 90 % 0.0 in /  0 mm
02:17 10.3 °F /  -12.1 °C 8.7 °F /  -12.9 °C 1017.8 in /  34462.7 hPa Calm   3.2 mph /  5.1 km/h 90 % 0.0 in /  0 mm
02:22 10.4 °F /  -12 °C 8.8 °F /  -12.9 °C 1017.8 in /  34462.7 hPa Calm   3.2 mph /  5.1 km/h 90 % 0.0 in /  0 mm
02:27 10.3 °F /  -12.1 °C 8.7 °F /  -12.9 °C 1017.8 in /  34462.7 hPa Calm   1.6 mph /  2.6 km/h 90 % 0.0 in /  0 mm
02:32 10.3 °F /  -12.1 °C 8.7 °F /  -12.9 °C 1017.8 in /  34462.7 hPa Calm     90 % 0.0 in /  0 mm
02:37 10.3 °F /  -12.1 °C 8.7 °F /  -12.9 °C 1017.8 in /  34462.7 hPa Calm     90 % 0.0 in /  0 mm
02:42 10.2 °F /  -12.1 °C 8.6 °F /  -13 °C 1017.8 in /  34462.7 hPa Calm   3.2 mph /  5.1 km/h 90 % 0.0 in /  0 mm
02:47 10.1 °F /  -12.2 °C 8.5 °F /  -13.1 °C 1017.8 in /  34462.7 hPa Calm   3.2 mph /  5.1 km/h 90 % 0.0 in /  0 mm
02:52 10.1 °F /  -12.2 °C 8.5 °F /  -13.1 °C 1017.8 in /  34462.7 hPa Calm   3.2 mph /  5.1 km/h 90 % 0.0 in /  0 mm
02:57 10.0 °F /  -12.2 °C 8.4 °F /  -13.1 °C 1017.8 in /  34462.7 hPa Calm   1.6 mph /  2.6 km/h 90 % 0.0 in /  0 mm
03:02 10.0 °F /  -12.2 °C 8.4 °F /  -13.1 °C 1017.8 in /  34462.7 hPa Calm     90 % 0.0 in /  0 mm
03:07 10.0 °F /  -12.2 °C 8.6 °F /  -13 °C 1017.5 in /  34452.6 hPa SSW 1.6 mph /  2.6 km/h   91 % 0.0 in /  0 mm
03:12 10.0 °F /  -12.2 °C 8.6 °F /  -13 °C 1017.5 in /  34452.6 hPa SSW 3.2 mph /  5.1 km/h 4.8 mph /  7.7 km/h 91 % 0.0 in /  0 mm
03:17 10.1 °F /  -12.2 °C 8.7 °F /  -12.9 °C 1017.5 in /  34452.6 hPa Calm   4.8 mph /  7.7 km/h 91 % 0.0 in /  0 mm
03:22 10.1 °F /  -12.2 °C 8.7 °F /  -12.9 °C 1017.5 in /  34452.6 hPa SSW 3.2 mph /  5.1 km/h 4.8 mph /  7.7 km/h 91 % 0.0 in /  0 mm
03:27 10.1 °F /  -12.2 °C 8.5 °F /  -13.1 °C 1017.5 in /  34452.6 hPa SW 6.4 mph /  10.3 km/h 6.4 mph /  10.3 km/h 90 % 0.0 in /  0 mm
03:32 10.2 °F /  -12.1 °C 8.6 °F /  -13 °C 1017.5 in /  34452.6 hPa SSW 1.6 mph /  2.6 km/h 6.4 mph /  10.3 km/h 90 % 0.0 in /  0 mm
03:37 10.2 °F /  -12.1 °C 8.5 °F /  -13.1 °C 1017.5 in /  34452.6 hPa Calm   6.4 mph /  10.3 km/h 89 % 0.0 in /  0 mm
03:42 10.1 °F /  -12.2 °C 8.4 °F /  -13.1 °C 1017.5 in /  34452.6 hPa SSW 1.6 mph /  2.6 km/h 6.4 mph /  10.3 km/h 89 % 0.0 in /  0 mm
03:47 10.1 °F /  -12.2 °C 8.4 °F /  -13.1 °C 1017.2 in /  34442.4 hPa Calm   4.8 mph /  7.7 km/h 89 % 0.0 in /  0 mm
03:57 9.8 °F /  -12.3 °C 8.1 °F /  -13.3 °C 1017.2 in /  34442.4 hPa Calm   3.2 mph /  5.1 km/h 89 % 0.0 in /  0 mm
04:02 9.7 °F /  -12.4 °C 8.0 °F /  -13.3 °C 1017.2 in /  34442.4 hPa SSE 1.6 mph /  2.6 km/h 3.2 mph /  5.1 km/h 89 % 0.0 in /  0 mm
04:07 9.6 °F /  -12.4 °C 8.0 °F /  -13.3 °C 1017.2 in /  34442.4 hPa Calm   3.2 mph /  5.1 km/h 90 % 0.0 in /  0 mm
04:12 9.4 °F /  -12.6 °C 7.8 °F /  -13.4 °C 1017.2 in /  34442.4 hPa Calm   3.2 mph /  5.1 km/h 90 % 0.0 in /  0 mm
04:17 9.3 °F /  -12.6 °C 7.9 °F /  -13.4 °C 1017.2 in /  34442.4 hPa SSW 1.6 mph /  2.6 km/h 3.2 mph /  5.1 km/h 91 % 0.0 in /  0 mm
04:22 9.3 °F /  -12.6 °C 7.9 °F /  -13.4 °C 1017.2 in /  34442.4 hPa Calm   1.6 mph /  2.6 km/h 91 % 0.0 in /  0 mm
04:32 9.3 °F /  -12.6 °C 8.1 °F /  -13.3 °C 1017.2 in /  34442.4 hPa Calm   3.2 mph /  5.1 km/h 92 % 0.0 in /  0 mm
04:37 9.4 °F /  -12.6 °C 8.2 °F /  -13.2 °C 1016.8 in /  34428.8 hPa Calm   3.2 mph /  5.1 km/h 92 % 0.0 in /  0 mm
04:42 9.4 °F /  -12.6 °C 8.2 °F /  -13.2 °C 1016.8 in /  34428.8 hPa Calm   1.6 mph /  2.6 km/h 92 % 0.0 in /  0 mm
04:47 9.4 °F /  -12.6 °C 8.2 °F /  -13.2 °C 1016.8 in /  34428.8 hPa SSW 1.6 mph /  2.6 km/h 1.6 mph /  2.6 km/h 92 % 0.0 in /  0 mm
04:52 9.5 °F /  -12.5 °C 8.4 °F /  -13.1 °C 1016.8 in /  34428.8 hPa SW 3.2 mph /  5.1 km/h 3.2 mph /  5.1 km/h 93 % 0.0 in /  0 mm
04:57 9.6 °F /  -12.4 °C 8.5 °F /  -13.1 °C 1016.8 in /  34428.8 hPa SW 1.6 mph /  2.6 km/h 3.2 mph /  5.1 km/h 93 % 0.0 in /  0 mm
05:02 9.7 °F /  -12.4 °C 8.6 °F /  -13 °C 1016.8 in /  34428.8 hPa WSW 4.8 mph /  7.7 km/h 6.4 mph /  10.3 km/h 93 % 0.0 in /  0 mm
05:22 9.7 °F /  -12.4 °C 8.5 °F /  -13.1 °C 1016.5 in /  34418.7 hPa Calm   4.8 mph /  7.7 km/h 92 % 0.0 in /  0 mm
05:32 9.6 °F /  -12.4 °C 8.4 °F /  -13.1 °C 1016.5 in /  34418.7 hPa NE 1.6 mph /  2.6 km/h 3.2 mph /  5.1 km/h 92 % 0.0 in /  0 mm
05:37 9.6 °F /  -12.4 °C 8.5 °F /  -13.1 °C 1016.5 in /  34418.7 hPa Calm   1.6 mph /  2.6 km/h 93 % 0.0 in /  0 mm
05:42 9.5 °F /  -12.5 °C 8.4 °F /  -13.1 °C 1016.5 in /  34418.7 hPa Calm   1.6 mph /  2.6 km/h 93 % 0.0 in /  0 mm
05:47 9.5 °F /  -12.5 °C 8.4 °F /  -13.1 °C 1016.5 in /  34418.7 hPa Calm   1.6 mph /  2.6 km/h 93 % 0.0 in /  0 mm
05:52 9.4 °F /  -12.6 °C 8.3 °F /  -13.2 °C 1016.1 in /  34405.1 hPa Calm   3.2 mph /  5.1 km/h 93 % 0.0 in /  0 mm
05:57 9.4 °F /  -12.6 °C 8.3 °F /  -13.2 °C 1016.1 in /  34405.1 hPa Calm   3.2 mph /  5.1 km/h 93 % 0.0 in /  0 mm
06:02 9.4 °F /  -12.6 °C 8.3 °F /  -13.2 °C 1016.1 in /  34405.1 hPa Calm   3.2 mph /  5.1 km/h 93 % 0.0 in /  0 mm
06:12 9.4 °F /  -12.6 °C 8.5 °F /  -13.1 °C 1016.1 in /  34405.1 hPa Calm   3.2 mph /  5.1 km/h 94 % 0.0 in /  0 mm
06:17 9.3 °F /  -12.6 °C 8.4 °F /  -13.1 °C 1016.1 in /  34405.1 hPa Calm   1.6 mph /  2.6 km/h 94 % 0.0 in /  0 mm
06:22 9.3 °F /  -12.6 °C 8.4 °F /  -13.1 °C 1016.1 in /  34405.1 hPa South 1.6 mph /  2.6 km/h 1.6 mph /  2.6 km/h 94 % 0.0 in /  0 mm
06:27 9.4 °F /  -12.6 °C 8.5 °F /  -13.1 °C 1016.1 in /  34405.1 hPa South 1.6 mph /  2.6 km/h 3.2 mph /  5.1 km/h 94 % 0.0 in /  0 mm
06:32 9.4 °F /  -12.6 °C 8.5 °F /  -13.1 °C 1016.1 in /  34405.1 hPa Calm   3.2 mph /  5.1 km/h 94 % 0.0 in /  0 mm
06:42 9.4 °F /  -12.6 °C 8.5 °F /  -13.1 °C 1016.1 in /  34405.1 hPa South 3.2 mph /  5.1 km/h 3.2 mph /  5.1 km/h 94 % 0.0 in /  0 mm
06:52 9.5 °F /  -12.5 °C 8.7 °F /  -12.9 °C 1016.1 in /  34405.1 hPa SW 3.2 mph /  5.1 km/h 4.8 mph /  7.7 km/h 95 % 0.0 in /  0 mm
06:57 9.6 °F /  -12.4 °C 8.8 °F /  -12.9 °C 1016.1 in /  34405.1 hPa SW 1.6 mph /  2.6 km/h 6.4 mph /  10.3 km/h 95 % 0.0 in /  0 mm
07:02 9.6 °F /  -12.4 °C 8.8 °F /  -12.9 °C 1016.1 in /  34405.1 hPa SW 1.6 mph /  2.6 km/h 6.4 mph /  10.3 km/h 95 % 0.0 in /  0 mm
07:12 9.6 °F /  -12.4 °C 8.7 °F /  -12.9 °C 1016.1 in /  34405.1 hPa SSW 3.2 mph /  5.1 km/h 6.4 mph /  10.3 km/h 94 % 0.0 in /  0 mm
07:17 9.6 °F /  -12.4 °C 8.7 °F /  -12.9 °C 1016.1 in /  34405.1 hPa SSW 1.6 mph /  2.6 km/h 6.4 mph /  10.3 km/h 94 % 0.0 in /  0 mm
07:22 9.5 °F /  -12.5 °C 8.6 °F /  -13 °C 1016.1 in /  34405.1 hPa Calm   4.8 mph /  7.7 km/h 94 % 0.0 in /  0 mm
07:32 9.4 °F /  -12.6 °C 8.5 °F /  -13.1 °C 1016.1 in /  34405.1 hPa Calm   3.2 mph /  5.1 km/h 94 % 0.0 in /  0 mm
07:37 9.3 °F /  -12.6 °C 8.4 °F /  -13.1 °C 1016.1 in /  34405.1 hPa Calm   4.8 mph /  7.7 km/h 94 % 0.0 in /  0 mm
07:42 9.3 °F /  -12.6 °C 8.5 °F /  -13.1 °C 1016.1 in /  34405.1 hPa Calm   4.8 mph /  7.7 km/h 95 % 0.0 in /  0 mm
07:47 9.3 °F /  -12.6 °C 8.5 °F /  -13.1 °C 1016.1 in /  34405.1 hPa Calm   4.8 mph /  7.7 km/h 95 % 0.0 in /  0 mm
07:52 9.3 °F /  -12.6 °C 8.5 °F /  -13.1 °C 1016.1 in /  34405.1 hPa SSE 1.6 mph /  2.6 km/h 3.2 mph /  5.1 km/h 95 % 0.0 in /  0 mm
07:57 9.3 °F /  -12.6 °C 8.5 °F /  -13.1 °C 1016.5 in /  34418.7 hPa ESE 1.6 mph /  2.6 km/h 3.2 mph /  5.1 km/h 95 % 0.0 in /  0 mm
08:02 9.4 °F /  -12.6 °C 8.6 °F /  -13 °C 1016.1 in /  34405.1 hPa South 3.2 mph /  5.1 km/h 3.2 mph /  5.1 km/h 95 % 0.0 in /  0 mm
08:12 9.6 °F /  -12.4 °C 8.8 °F /  -12.9 °C 1016.1 in /  34405.1 hPa Calm   4.8 mph /  7.7 km/h 95 % 0.0 in /  0 mm
08:17 9.6 °F /  -12.4 °C 8.8 °F /  -12.9 °C 1016.1 in /  34405.1 hPa Calm   4.8 mph /  7.7 km/h 95 % 0.0 in /  0 mm
08:22 9.7 °F /  -12.4 °C 8.9 °F /  -12.8 °C 1016.1 in /  34405.1 hPa Calm   3.2 mph /  5.1 km/h 95 % 0.0 in /  0 mm
08:32 9.9 °F /  -12.3 °C 9.1 °F /  -12.7 °C 1016.1 in /  34405.1 hPa WSW 1.6 mph /  2.6 km/h 3.2 mph /  5.1 km/h 95 % 0.0 in /  0 mm
08:37 10.0 °F /  -12.2 °C 9.2 °F /  -12.7 °C 1016.1 in /  34405.1 hPa SW 4.8 mph /  7.7 km/h 8.0 mph /  12.9 km/h 95 % 0.0 in /  0 mm
08:42 10.1 °F /  -12.2 °C 9.3 °F /  -12.6 °C 1016.5 in /  34418.7 hPa Calm   9.7 mph /  15.6 km/h 95 % 0.0 in /  0 mm
08:47 10.1 °F /  -12.2 °C 9.3 °F /  -12.6 °C 1016.1 in /  34405.1 hPa WSW 1.6 mph /  2.6 km/h 9.7 mph /  15.6 km/h 95 % 0.0 in /  0 mm
08:52 10.2 °F /  -12.1 °C 9.4 °F /  -12.6 °C 1016.1 in /  34405.1 hPa WSW 4.8 mph /  7.7 km/h 9.7 mph /  15.6 km/h 95 % 0.0 in /  0 mm
09:02 10.3 °F /  -12.1 °C 9.5 °F /  -12.5 °C 1016.1 in /  34405.1 hPa Calm   9.7 mph /  15.6 km/h 95 % 0.0 in /  0 mm
09:12 10.3 °F /  -12.1 °C 9.4 °F /  -12.6 °C 1016.5 in /  34418.7 hPa SSW 1.6 mph /  2.6 km/h 4.8 mph /  7.7 km/h 94 % 0.0 in /  0 mm
09:17 10.4 °F /  -12 °C 9.5 °F /  -12.5 °C 1016.5 in /  34418.7 hPa WSW 3.2 mph /  5.1 km/h 3.2 mph /  5.1 km/h 94 % 0.0 in /  0 mm
09:22 10.4 °F /  -12 °C 9.5 °F /  -12.5 °C 1016.5 in /  34418.7 hPa SW 1.6 mph /  2.6 km/h 8.0 mph /  12.9 km/h 94 % 0.0 in /  0 mm
09:32 10.6 °F /  -11.9 °C 9.7 °F /  -12.4 °C 1016.5 in /  34418.7 hPa West 3.2 mph /  5.1 km/h 8.0 mph /  12.9 km/h 94 % 0.0 in /  0 mm
09:42 10.7 °F /  -11.8 °C 9.6 °F /  -12.4 °C 1016.5 in /  34418.7 hPa Calm   8.0 mph /  12.9 km/h 93 % 0.0 in /  0 mm
09:47 10.7 °F /  -11.8 °C 9.6 °F /  -12.4 °C 1016.8 in /  34428.8 hPa SW 4.8 mph /  7.7 km/h 6.4 mph /  10.3 km/h 93 % 0.0 in /  0 mm
09:52 10.6 °F /  -11.9 °C 9.5 °F /  -12.5 °C 1016.8 in /  34428.8 hPa SSW 3.2 mph /  5.1 km/h 6.4 mph /  10.3 km/h 93 % 0.0 in /  0 mm
09:57 10.6 °F /  -11.9 °C 9.5 °F /  -12.5 °C 1016.8 in /  34428.8 hPa SSW 4.8 mph /  7.7 km/h 8.0 mph /  12.9 km/h 93 % 0.0 in /  0 mm
10:02 10.7 °F /  -11.8 °C 9.6 °F /  -12.4 °C 1016.8 in /  34428.8 hPa SSW 3.2 mph /  5.1 km/h 8.0 mph /  12.9 km/h 93 % 0.0 in /  0 mm
10:12 10.7 °F /  -11.8 °C 9.6 °F /  -12.4 °C 1016.8 in /  34428.8 hPa SW 1.6 mph /  2.6 km/h 8.0 mph /  12.9 km/h 93 % 0.0 in /  0 mm
10:17 10.8 °F /  -11.8 °C 9.6 °F /  -12.4 °C 1016.8 in /  34428.8 hPa SSW 4.8 mph /  7.7 km/h 8.0 mph /  12.9 km/h 92 % 0.0 in /  0 mm
10:22 10.8 °F /  -11.8 °C 9.7 °F /  -12.4 °C 1016.8 in /  34428.8 hPa South 3.2 mph /  5.1 km/h 8.0 mph /  12.9 km/h 93 % 0.0 in /  0 mm
10:32 10.9 °F /  -11.7 °C 9.7 °F /  -12.4 °C 1016.8 in /  34428.8 hPa SSW 3.2 mph /  5.1 km/h 9.7 mph /  15.6 km/h 92 % 0.0 in /  0 mm
10:37 11.0 °F /  -11.7 °C 9.8 °F /  -12.3 °C 1016.8 in /  34428.8 hPa SSW 4.8 mph /  7.7 km/h 9.7 mph /  15.6 km/h 92 % 0.0 in /  0 mm
10:42 11.2 °F /  -11.6 °C 9.9 °F /  -12.3 °C 1016.8 in /  34428.8 hPa SW 3.2 mph /  5.1 km/h 9.7 mph /  15.6 km/h 92 % 0.0 in /  0 mm
10:47 11.3 °F /  -11.5 °C 9.9 °F /  -12.3 °C 1016.8 in /  34428.8 hPa SSW 4.8 mph /  7.7 km/h 8.0 mph /  12.9 km/h 91 % 0.0 in /  0 mm
10:52 11.5 °F /  -11.4 °C 9.9 °F /  -12.3 °C 1016.8 in /  34428.8 hPa SSW 3.2 mph /  5.1 km/h 9.7 mph /  15.6 km/h 90 % 0.0 in /  0 mm
11:02 12.2 °F /  -11 °C 10.6 °F /  -11.9 °C 1016.8 in /  34428.8 hPa WSW 6.4 mph /  10.3 km/h 9.7 mph /  15.6 km/h 90 % 0.0 in /  0 mm
11:12 12.4 °F /  -10.9 °C 10.5 °F /  -11.9 °C 1016.8 in /  34428.8 hPa WSW 6.4 mph /  10.3 km/h 12.9 mph /  20.8 km/h 88 % 0.0 in /  0 mm
11:17 12.4 °F /  -10.9 °C 10.3 °F /  -12.1 °C 1016.8 in /  34428.8 hPa SW 3.2 mph /  5.1 km/h 14.5 mph /  23.3 km/h 87 % 0.0 in /  0 mm
11:22 12.5 °F /  -10.8 °C 10.4 °F /  -12 °C 1016.8 in /  34428.8 hPa SW 4.8 mph /  7.7 km/h 14.5 mph /  23.3 km/h 87 % 0.0 in /  0 mm
11:32 12.6 °F /  -10.8 °C 10.5 °F /  -11.9 °C 1016.8 in /  34428.8 hPa SW 12.9 mph /  20.8 km/h 12.9 mph /  20.8 km/h 87 % 0.0 in /  0 mm
11:42 12.9 °F /  -10.6 °C 10.8 °F /  -11.8 °C 1016.5 in /  34418.7 hPa SSW 6.4 mph /  10.3 km/h 17.7 mph /  28.5 km/h 87 % 0.0 in /  0 mm
11:52 12.9 °F /  -10.6 °C 10.4 °F /  -12 °C 1016.8 in /  34428.8 hPa SW 1.6 mph /  2.6 km/h 14.5 mph /  23.3 km/h 85 % 0.0 in /  0 mm
12:02 13.2 °F /  -10.4 °C 10.4 °F /  -12 °C 1016.5 in /  34418.7 hPa West 3.2 mph /  5.1 km/h 14.5 mph /  23.3 km/h 83 % 0.0 in /  0 mm
12:12 13.0 °F /  -10.6 °C 9.8 °F /  -12.3 °C 1016.5 in /  34418.7 hPa West 4.8 mph /  7.7 km/h 9.7 mph /  15.6 km/h 81 % 0.0 in /  0 mm
12:17 12.9 °F /  -10.6 °C 9.7 °F /  -12.4 °C 1016.5 in /  34418.7 hPa West 4.8 mph /  7.7 km/h 11.3 mph /  18.2 km/h 81 % 0.0 in /  0 mm
12:22 13.3 °F /  -10.4 °C 9.5 °F /  -12.5 °C 1016.5 in /  34418.7 hPa West 8.0 mph /  12.9 km/h 11.3 mph /  18.2 km/h 78 % 0.0 in /  0 mm
12:32 13.8 °F /  -10.1 °C 9.8 °F /  -12.3 °C 1016.5 in /  34418.7 hPa West 6.4 mph /  10.3 km/h 8.0 mph /  12.9 km/h 77 % 0.0 in /  0 mm
12:37 13.6 °F /  -10.2 °C 9.3 °F /  -12.6 °C 1016.1 in /  34405.1 hPa West 8.0 mph /  12.9 km/h 9.7 mph /  15.6 km/h 75 % 0.0 in /  0 mm
12:42 13.7 °F /  -10.2 °C 9.3 °F /  -12.6 °C 1016.1 in /  34405.1 hPa West 9.7 mph /  15.6 km/h 9.7 mph /  15.6 km/h 75 % 0.0 in /  0 mm
12:52 14.3 °F /  -9.8 °C 9.5 °F /  -12.5 °C 1016.1 in /  34405.1 hPa SW 4.8 mph /  7.7 km/h 11.3 mph /  18.2 km/h 73 % 0.0 in /  0 mm
13:02 14.7 °F /  -9.6 °C 9.3 °F /  -12.6 °C 1015.8 in /  34395 hPa WNW 9.7 mph /  15.6 km/h 14.5 mph /  23.3 km/h 70 % 0.0 in /  0 mm
13:12 14.9 °F /  -9.5 °C 9.3 °F /  -12.6 °C 1015.8 in /  34395 hPa South 3.2 mph /  5.1 km/h 14.5 mph /  23.3 km/h 69 % 0.0 in /  0 mm
13:17 15.1 °F /  -9.4 °C 9.2 °F /  -12.7 °C 1015.8 in /  34395 hPa West 3.2 mph /  5.1 km/h 12.9 mph /  20.8 km/h 68 % 0.0 in /  0 mm
13:22 15.4 °F /  -9.2 °C 9.3 °F /  -12.6 °C 1015.5 in /  34384.8 hPa West 9.7 mph /  15.6 km/h 14.5 mph /  23.3 km/h 67 % 0.0 in /  0 mm
13:27 15.3 °F /  -9.3 °C 7.8 °F /  -13.4 °C 1015.5 in /  34384.8 hPa Calm   14.5 mph /  23.3 km/h 61 % 0.0 in /  0 mm
13:32 15.3 °F /  -9.3 °C 8.1 °F /  -13.3 °C 1015.5 in /  34384.8 hPa West 4.8 mph /  7.7 km/h 14.5 mph /  23.3 km/h 62 % 0.0 in /  0 mm
13:42 15.8 °F /  -9 °C 8.8 °F /  -12.9 °C 1015.5 in /  34384.8 hPa SW 6.4 mph /  10.3 km/h 14.5 mph /  23.3 km/h 63 % 0.0 in /  0 mm
13:47 16.1 °F /  -8.8 °C 8.3 °F /  -13.2 °C 1015.5 in /  34384.8 hPa WNW 4.8 mph /  7.7 km/h 11.3 mph /  18.2 km/h 60 % 0.0 in /  0 mm
13:52 16.2 °F /  -8.8 °C 8.9 °F /  -12.8 °C 1015.5 in /  34384.8 hPa WNW 3.2 mph /  5.1 km/h 11.3 mph /  18.2 km/h 62 % 0.0 in /  0 mm
13:57 15.5 °F /  -9.2 °C 8.9 °F /  -12.8 °C 1015.5 in /  34384.8 hPa NW 8.0 mph /  12.9 km/h 11.3 mph /  18.2 km/h 65 % 0.0 in /  0 mm
14:02 15.1 °F /  -9.4 °C 8.8 °F /  -12.9 °C 1015.5 in /  34384.8 hPa NW 4.8 mph /  7.7 km/h 16.1 mph /  25.9 km/h 66 % 0.0 in /  0 mm
14:12 14.6 °F /  -9.7 °C 8.1 °F /  -13.3 °C 1015.5 in /  34384.8 hPa SW 4.8 mph /  7.7 km/h 16.1 mph /  25.9 km/h 65 % 0.0 in /  0 mm
14:17 14.4 °F /  -9.8 °C 7.2 °F /  -13.8 °C 1015.5 in /  34384.8 hPa NW 3.2 mph /  5.1 km/h 17.7 mph /  28.5 km/h 62 % 0.0 in /  0 mm
14:22 14.6 °F /  -9.7 °C 6.9 °F /  -13.9 °C 1015.5 in /  34384.8 hPa West 11.3 mph /  18.2 km/h 17.7 mph /  28.5 km/h 60 % 0.0 in /  0 mm
14:27 14.3 °F /  -9.8 °C 6.6 °F /  -14.1 °C 1015.5 in /  34384.8 hPa West 9.7 mph /  15.6 km/h 20.9 mph /  33.6 km/h 60 % 0.0 in /  0 mm
14:32 14.2 °F /  -9.9 °C 7.0 °F /  -13.9 °C 1015.1 in /  34371.3 hPa WNW 6.4 mph /  10.3 km/h 20.9 mph /  33.6 km/h 62 % 0.0 in /  0 mm
14:37 14.2 °F /  -9.9 °C 7.3 °F /  -13.7 °C 1015.1 in /  34371.3 hPa NW 4.8 mph /  7.7 km/h 20.9 mph /  33.6 km/h 63 % 0.0 in /  0 mm
14:42 14.2 °F /  -9.9 °C 6.5 °F /  -14.2 °C 1015.1 in /  34371.3 hPa WNW 4.8 mph /  7.7 km/h 16.1 mph /  25.9 km/h 60 % 0.0 in /  0 mm
14:47 14.3 °F /  -9.8 °C 6.9 °F /  -13.9 °C 1015.1 in /  34371.3 hPa WNW 3.2 mph /  5.1 km/h 16.1 mph /  25.9 km/h 61 % 0.0 in /  0 mm
14:52 14.5 °F /  -9.7 °C 6.3 °F /  -14.3 °C 1015.1 in /  34371.3 hPa WSW 4.8 mph /  7.7 km/h 16.1 mph /  25.9 km/h 58 % 0.0 in /  0 mm
14:57 14.9 °F /  -9.5 °C 6.7 °F /  -14.1 °C 1015.1 in /  34371.3 hPa West 8.0 mph /  12.9 km/h 12.9 mph /  20.8 km/h 58 % 0.0 in /  0 mm
15:02 15.4 °F /  -9.2 °C 6.1 °F /  -14.4 °C 1014.8 in /  34361.1 hPa SW 3.2 mph /  5.1 km/h 8.0 mph /  12.9 km/h 54 % 0.0 in /  0 mm
15:07 15.6 °F /  -9.1 °C 6.6 °F /  -14.1 °C 1014.8 in /  34361.1 hPa WNW 9.7 mph /  15.6 km/h 9.7 mph /  15.6 km/h 55 % 0.0 in /  0 mm
15:12 15.8 °F /  -9 °C 6.2 °F /  -14.3 °C 1014.8 in /  34361.1 hPa NW 8.0 mph /  12.9 km/h 22.5 mph /  36.2 km/h 53 % 0.0 in /  0 mm
15:17 16.0 °F /  -8.9 °C 7.0 °F /  -13.9 °C 1014.8 in /  34361.1 hPa West 4.8 mph /  7.7 km/h 22.5 mph /  36.2 km/h 55 % 0.0 in /  0 mm
15:22 16.0 °F /  -8.9 °C 6.7 °F /  -14.1 °C 1014.8 in /  34361.1 hPa West 12.9 mph /  20.8 km/h 22.5 mph /  36.2 km/h 54 % 0.0 in /  0 mm
15:27 16.3 °F /  -8.7 °C 7.0 °F /  -13.9 °C 1014.8 in /  34361.1 hPa WSW 8.0 mph /  12.9 km/h 16.1 mph /  25.9 km/h 54 % 0.0 in /  0 mm
15:32 16.2 °F /  -8.8 °C 6.9 °F /  -13.9 °C 1014.4 in /  34347.6 hPa West 12.9 mph /  20.8 km/h 16.1 mph /  25.9 km/h 54 % 0.0 in /  0 mm
15:37 16.3 °F /  -8.7 °C 7.0 °F /  -13.9 °C 1014.4 in /  34347.6 hPa WNW 3.2 mph /  5.1 km/h 17.7 mph /  28.5 km/h 54 % 0.0 in /  0 mm
15:42 16.2 °F /  -8.8 °C 6.9 °F /  -13.9 °C 1014.4 in /  34347.6 hPa WNW 4.8 mph /  7.7 km/h 17.7 mph /  28.5 km/h 54 % 0.0 in /  0 mm
15:52 16.3 °F /  -8.7 °C 6.7 °F /  -14.1 °C 1014.4 in /  34347.6 hPa West 3.2 mph /  5.1 km/h 17.7 mph /  28.5 km/h 53 % 0.0 in /  0 mm
15:57 16.5 °F /  -8.6 °C 6.3 °F /  -14.3 °C 1014.4 in /  34347.6 hPa SSW 3.2 mph /  5.1 km/h 16.1 mph /  25.9 km/h 51 % 0.0 in /  0 mm
16:02 16.3 °F /  -8.7 °C 6.1 °F /  -14.4 °C 1014.4 in /  34347.6 hPa WNW 9.7 mph /  15.6 km/h 17.7 mph /  28.5 km/h 51 % 0.0 in /  0 mm
16:07 16.2 °F /  -8.8 °C 5.2 °F /  -14.9 °C 1014.4 in /  34347.6 hPa West 6.4 mph /  10.3 km/h 17.7 mph /  28.5 km/h 48 % 0.0 in /  0 mm
16:12 16.2 °F /  -8.8 °C 6.1 °F /  -14.4 °C 1014.4 in /  34347.6 hPa WSW 4.8 mph /  7.7 km/h 17.7 mph /  28.5 km/h 51 % 0.0 in /  0 mm
16:17 16.3 °F /  -8.7 °C 5.6 °F /  -14.7 °C 1014.4 in /  34347.6 hPa WNW 1.6 mph /  2.6 km/h 17.7 mph /  28.5 km/h 49 % 0.0 in /  0 mm
16:22 16.3 °F /  -8.7 °C 5.9 °F /  -14.5 °C 1014.1 in /  34337.4 hPa WSW 6.4 mph /  10.3 km/h 16.1 mph /  25.9 km/h 50 % 0.0 in /  0 mm
16:27 16.5 °F /  -8.6 °C 5.1 °F /  -14.9 °C 1014.1 in /  34337.4 hPa WNW 6.4 mph /  10.3 km/h 14.5 mph /  23.3 km/h 47 % 0.0 in /  0 mm
16:32 16.6 °F /  -8.6 °C 6.4 °F /  -14.2 °C 1014.1 in /  34337.4 hPa WNW 9.7 mph /  15.6 km/h 14.5 mph /  23.3 km/h 51 % 0.0 in /  0 mm
16:37 16.7 °F /  -8.5 °C 6.5 °F /  -14.2 °C 1014.1 in /  34337.4 hPa WNW 4.8 mph /  7.7 km/h 14.5 mph /  23.3 km/h 51 % 0.0 in /  0 mm
16:42 16.6 °F /  -8.6 °C 6.4 °F /  -14.2 °C 1014.1 in /  34337.4 hPa West 3.2 mph /  5.1 km/h 16.1 mph /  25.9 km/h 51 % 0.0 in /  0 mm
16:47 16.6 °F /  -8.6 °C 6.4 °F /  -14.2 °C 1014.1 in /  34337.4 hPa West 8.0 mph /  12.9 km/h 16.1 mph /  25.9 km/h 51 % 0.0 in /  0 mm
16:52 16.6 °F /  -8.6 °C 6.4 °F /  -14.2 °C 1014.1 in /  34337.4 hPa NNW 6.4 mph /  10.3 km/h 16.1 mph /  25.9 km/h 51 % 0.0 in /  0 mm
16:57 16.6 °F /  -8.6 °C 6.4 °F /  -14.2 °C 1014.1 in /  34337.4 hPa West 1.6 mph /  2.6 km/h 16.1 mph /  25.9 km/h 51 % 0.0 in /  0 mm
17:02 16.6 °F /  -8.6 °C 6.1 °F /  -14.4 °C 1014.1 in /  34337.4 hPa West 1.6 mph /  2.6 km/h 16.1 mph /  25.9 km/h 50 % 0.0 in /  0 mm
17:07 16.5 °F /  -8.6 °C 5.5 °F /  -14.7 °C 1014.1 in /  34337.4 hPa NW 6.4 mph /  10.3 km/h 14.5 mph /  23.3 km/h 48 % 0.0 in /  0 mm
17:12 16.2 °F /  -8.8 °C 5.5 °F /  -14.7 °C 1013.8 in /  34327.3 hPa NW 4.8 mph /  7.7 km/h 12.9 mph /  20.8 km/h 49 % 0.0 in /  0 mm
17:17 16.1 °F /  -8.8 °C 6.0 °F /  -14.4 °C 1013.8 in /  34327.3 hPa NW 3.2 mph /  5.1 km/h 11.3 mph /  18.2 km/h 51 % 0.0 in /  0 mm
17:22 16.0 °F /  -8.9 °C 7.7 °F /  -13.5 °C 1014.1 in /  34337.4 hPa NW 14.5 mph /  23.3 km/h 14.5 mph /  23.3 km/h 58 % 0.0 in /  0 mm
17:27 15.8 °F /  -9 °C 7.8 °F /  -13.4 °C 1014.1 in /  34337.4 hPa NW 6.4 mph /  10.3 km/h 20.9 mph /  33.6 km/h 59 % 0.0 in /  0 mm
17:32 15.6 °F /  -9.1 °C 7.1 °F /  -13.8 °C 1013.8 in /  34327.3 hPa WNW 1.6 mph /  2.6 km/h 20.9 mph /  33.6 km/h 57 % 0.0 in /  0 mm
17:37 15.6 °F /  -9.1 °C 7.4 °F /  -13.7 °C 1013.8 in /  34327.3 hPa Calm   14.5 mph /  23.3 km/h 58 % 0.0 in /  0 mm
17:42 15.7 °F /  -9.1 °C 7.2 °F /  -13.8 °C 1013.8 in /  34327.3 hPa NNE 8.0 mph /  12.9 km/h 14.5 mph /  23.3 km/h 57 % 0.0 in /  0 mm
17:47 15.5 °F /  -9.2 °C 7.0 °F /  -13.9 °C 1013.8 in /  34327.3 hPa NNW 6.4 mph /  10.3 km/h 12.9 mph /  20.8 km/h 57 % 0.0 in /  0 mm
17:52 15.5 °F /  -9.2 °C 7.0 °F /  -13.9 °C 1013.8 in /  34327.3 hPa NNW 1.6 mph /  2.6 km/h 12.9 mph /  20.8 km/h 57 % 0.0 in /  0 mm
17:57 15.9 °F /  -8.9 °C 6.6 °F /  -14.1 °C 1013.8 in /  34327.3 hPa NNE 4.8 mph /  7.7 km/h 11.3 mph /  18.2 km/h 54 % 0.0 in /  0 mm
18:02 16.2 °F /  -8.8 °C 7.1 °F /  -13.8 °C 1013.8 in /  34327.3 hPa NNW 4.8 mph /  7.7 km/h 11.3 mph /  18.2 km/h 55 % 0.0 in /  0 mm
18:07 16.1 °F /  -8.8 °C 7.3 °F /  -13.7 °C 1013.8 in /  34327.3 hPa WNW 3.2 mph /  5.1 km/h 11.3 mph /  18.2 km/h 56 % 0.0 in /  0 mm
18:12 16.2 °F /  -8.8 °C 7.7 °F /  -13.5 °C 1013.8 in /  34327.3 hPa Calm   8.0 mph /  12.9 km/h 57 % 0.0 in /  0 mm
18:17 16.3 °F /  -8.7 °C 7.8 °F /  -13.4 °C 1013.8 in /  34327.3 hPa NW 4.8 mph /  7.7 km/h 8.0 mph /  12.9 km/h 57 % 0.0 in /  0 mm
18:22 16.0 °F /  -8.9 °C 7.7 °F /  -13.5 °C 1013.8 in /  34327.3 hPa NNW 1.6 mph /  2.6 km/h 8.0 mph /  12.9 km/h 58 % 0.0 in /  0 mm
18:32 16.0 °F /  -8.9 °C 8.0 °F /  -13.3 °C 1013.8 in /  34327.3 hPa WNW 1.6 mph /  2.6 km/h 6.4 mph /  10.3 km/h 59 % 0.0 in /  0 mm
18:38 16.1 °F /  -8.8 °C 7.8 °F /  -13.4 °C 1013.8 in /  34327.3 hPa NW 3.2 mph /  5.1 km/h 4.8 mph /  7.7 km/h 58 % 0.0 in /  0 mm
18:47 16.8 °F /  -8.4 °C 8.2 °F /  -13.2 °C 1013.8 in /  34327.3 hPa Calm   4.8 mph /  7.7 km/h 57 % 0.0 in /  0 mm
18:52 16.7 °F /  -8.5 °C 8.1 °F /  -13.3 °C 1013.8 in /  34327.3 hPa North 3.2 mph /  5.1 km/h 4.8 mph /  7.7 km/h 57 % 0.0 in /  0 mm
18:57 16.6 °F /  -8.6 °C 8.0 °F /  -13.3 °C 1013.8 in /  34327.3 hPa NW 4.8 mph /  7.7 km/h 9.7 mph /  15.6 km/h 57 % 0.0 in /  0 mm
19:02 16.3 °F /  -8.7 °C 8.0 °F /  -13.3 °C 1013.8 in /  34327.3 hPa NW 1.6 mph /  2.6 km/h 12.9 mph /  20.8 km/h 58 % 0.0 in /  0 mm
19:07 15.9 °F /  -8.9 °C 8.1 °F /  -13.3 °C 1013.8 in /  34327.3 hPa NNW 6.4 mph /  10.3 km/h 14.5 mph /  23.3 km/h 60 % 0.0 in /  0 mm
19:12 15.7 °F /  -9.1 °C 8.0 °F /  -13.3 °C 1013.8 in /  34327.3 hPa North 4.8 mph /  7.7 km/h 16.1 mph /  25.9 km/h 60 % 0.0 in /  0 mm
19:17 15.7 °F /  -9.1 °C 8.2 °F /  -13.2 °C 1013.8 in /  34327.3 hPa NNW 4.8 mph /  7.7 km/h 16.1 mph /  25.9 km/h 61 % 0.0 in /  0 mm
19:22 15.4 °F /  -9.2 °C 8.2 °F /  -13.2 °C 1013.8 in /  34327.3 hPa NNW 8.0 mph /  12.9 km/h 14.5 mph /  23.3 km/h 62 % 0.0 in /  0 mm
19:27 15.2 °F /  -9.3 °C 8.4 °F /  -13.1 °C 1013.8 in /  34327.3 hPa North 8.0 mph /  12.9 km/h 14.5 mph /  23.3 km/h 64 % 0.0 in /  0 mm
19:32 14.9 °F /  -9.5 °C 7.4 °F /  -13.7 °C 1013.8 in /  34327.3 hPa NNE 3.2 mph /  5.1 km/h 14.5 mph /  23.3 km/h 61 % 0.0 in /  0 mm
19:37 14.7 °F /  -9.6 °C 7.3 °F /  -13.7 °C 1013.8 in /  34327.3 hPa NE 3.2 mph /  5.1 km/h 12.9 mph /  20.8 km/h 61 % 0.0 in /  0 mm
19:42 14.4 °F /  -9.8 °C 7.0 °F /  -13.9 °C 1013.8 in /  34327.3 hPa NW 3.2 mph /  5.1 km/h 12.9 mph /  20.8 km/h 61 % 0.0 in /  0 mm
19:47 14.2 °F /  -9.9 °C 7.0 °F /  -13.9 °C 1013.8 in /  34327.3 hPa NNW 1.6 mph /  2.6 km/h 9.7 mph /  15.6 km/h 62 % 0.0 in /  0 mm
19:52 14.0 °F /  -10 °C 7.3 °F /  -13.7 °C 1013.8 in /  34327.3 hPa NNW 3.2 mph /  5.1 km/h 6.4 mph /  10.3 km/h 64 % 0.0 in /  0 mm
19:57 13.7 °F /  -10.2 °C 7.5 °F /  -13.6 °C 1013.8 in /  34327.3 hPa NW 6.4 mph /  10.3 km/h 8.0 mph /  12.9 km/h 66 % 0.0 in /  0 mm
20:02 13.4 °F /  -10.3 °C 7.6 °F /  -13.6 °C 1013.8 in /  34327.3 hPa NNW 1.6 mph /  2.6 km/h 8.0 mph /  12.9 km/h 68 % 0.0 in /  0 mm
20:07 13.1 °F /  -10.5 °C 7.5 °F /  -13.6 °C 1013.8 in /  34327.3 hPa Calm   8.0 mph /  12.9 km/h 69 % 0.0 in /  0 mm
20:12 12.8 °F /  -10.7 °C 7.5 °F /  -13.6 °C 1014.1 in /  34337.4 hPa Calm   8.0 mph /  12.9 km/h 70 % 0.0 in /  0 mm
20:17 12.6 °F /  -10.8 °C 7.7 °F /  -13.5 °C 1013.8 in /  34327.3 hPa WNW 1.6 mph /  2.6 km/h 8.0 mph /  12.9 km/h 72 % 0.0 in /  0 mm
20:22 12.4 °F /  -10.9 °C 7.7 °F /  -13.5 °C 1013.8 in /  34327.3 hPa Calm   8.0 mph /  12.9 km/h 73 % 0.0 in /  0 mm
20:27 12.2 °F /  -11 °C 7.7 °F /  -13.5 °C 1013.8 in /  34327.3 hPa NW 1.6 mph /  2.6 km/h 8.0 mph /  12.9 km/h 74 % 0.0 in /  0 mm
20:32 12.0 °F /  -11.1 °C 7.7 °F /  -13.5 °C 1014.1 in /  34337.4 hPa Calm   4.8 mph /  7.7 km/h 75 % 0.0 in /  0 mm
20:37 11.9 °F /  -11.2 °C 7.8 °F /  -13.4 °C 1014.1 in /  34337.4 hPa Calm   4.8 mph /  7.7 km/h 76 % 0.0 in /  0 mm
20:42 11.9 °F /  -11.2 °C 7.8 °F /  -13.4 °C 1014.1 in /  34337.4 hPa NNW 1.6 mph /  2.6 km/h 4.8 mph /  7.7 km/h 76 % 0.0 in /  0 mm
20:47 11.8 °F /  -11.2 °C 7.9 °F /  -13.4 °C 1014.1 in /  34337.4 hPa Calm   4.8 mph /  7.7 km/h 77 % 0.0 in /  0 mm
20:52 11.7 °F /  -11.3 °C 8.0 °F /  -13.3 °C 1014.1 in /  34337.4 hPa Calm   4.8 mph /  7.7 km/h 78 % 0.0 in /  0 mm
20:57 11.5 °F /  -11.4 °C 7.8 °F /  -13.4 °C 1014.4 in /  34347.6 hPa Calm   4.8 mph /  7.7 km/h 78 % 0.0 in /  0 mm
21:02 11.5 °F /  -11.4 °C 7.8 °F /  -13.4 °C 1014.4 in /  34347.6 hPa Calm   4.8 mph /  7.7 km/h 78 % 0.0 in /  0 mm
21:12 11.4 °F /  -11.4 °C 7.9 °F /  -13.4 °C 1014.4 in /  34347.6 hPa Calm   3.2 mph /  5.1 km/h 79 % 0.0 in /  0 mm
21:17 11.3 °F /  -11.5 °C 7.8 °F /  -13.4 °C 1014.4 in /  34347.6 hPa Calm   1.6 mph /  2.6 km/h 79 % 0.0 in /  0 mm
21:22 11.0 °F /  -11.7 °C 7.7 °F /  -13.5 °C 1014.4 in /  34347.6 hPa Calm   1.6 mph /  2.6 km/h 80 % 0.0 in /  0 mm
21:27 10.8 °F /  -11.8 °C 7.7 °F /  -13.5 °C 1014.4 in /  34347.6 hPa Calm     81 % 0.0 in /  0 mm
21:32 10.7 °F /  -11.8 °C 7.6 °F /  -13.6 °C 1014.4 in /  34347.6 hPa Calm     81 % 0.0 in /  0 mm
21:37 10.6 °F /  -11.9 °C 7.7 °F /  -13.5 °C 1014.4 in /  34347.6 hPa Calm     82 % 0.0 in /  0 mm
21:42 10.6 °F /  -11.9 °C 7.7 °F /  -13.5 °C 1014.4 in /  34347.6 hPa Calm   1.6 mph /  2.6 km/h 82 % 0.0 in /  0 mm
21:47 10.6 °F /  -11.9 °C 7.7 °F /  -13.5 °C 1014.4 in /  34347.6 hPa Calm   1.6 mph /  2.6 km/h 82 % 0.0 in /  0 mm
21:52 10.4 °F /  -12 °C 7.6 °F /  -13.6 °C 1014.4 in /  34347.6 hPa Calm   1.6 mph /  2.6 km/h 83 % 0.0 in /  0 mm
21:57 10.4 °F /  -12 °C 7.6 °F /  -13.6 °C 1014.4 in /  34347.6 hPa Calm   1.6 mph /  2.6 km/h 83 % 0.0 in /  0 mm
22:02 10.3 °F /  -12.1 °C 7.7 °F /  -13.5 °C 1014.4 in /  34347.6 hPa Calm   1.6 mph /  2.6 km/h 84 % 0.0 in /  0 mm
22:07 10.3 °F /  -12.1 °C 7.9 °F /  -13.4 °C 1014.4 in /  34347.6 hPa Calm     85 % 0.0 in /  0 mm
22:12 10.3 °F /  -12.1 °C 7.9 °F /  -13.4 °C 1014.4 in /  34347.6 hPa Calm     85 % 0.0 in /  0 mm
22:17 10.3 °F /  -12.1 °C 7.9 °F /  -13.4 °C 1014.4 in /  34347.6 hPa Calm     85 % 0.0 in /  0 mm
22:22 10.3 °F /  -12.1 °C 7.7 °F /  -13.5 °C 1014.4 in /  34347.6 hPa Calm     84 % 0.0 in /  0 mm
22:27 10.2 °F /  -12.1 °C 7.6 °F /  -13.6 °C 1014.8 in /  34361.1 hPa WNW 1.6 mph /  2.6 km/h   84 % 0.0 in /  0 mm
22:32 10.0 °F /  -12.2 °C 7.6 °F /  -13.6 °C 1014.4 in /  34347.6 hPa Calm   1.6 mph /  2.6 km/h 85 % 0.0 in /  0 mm
22:37 10.0 °F /  -12.2 °C 7.8 °F /  -13.4 °C 1014.4 in /  34347.6 hPa Calm   1.6 mph /  2.6 km/h 86 % 0.0 in /  0 mm
22:42 10.1 °F /  -12.2 °C 7.7 °F /  -13.5 °C 1014.4 in /  34347.6 hPa Calm   1.6 mph /  2.6 km/h 85 % 0.0 in /  0 mm
22:47 9.9 °F /  -12.3 °C 7.7 °F /  -13.5 °C 1014.8 in /  34361.1 hPa Calm   1.6 mph /  2.6 km/h 86 % 0.0 in /  0 mm
22:52 9.8 °F /  -12.3 °C 7.6 °F /  -13.6 °C 1014.8 in /  34361.1 hPa Calm   1.6 mph /  2.6 km/h 86 % 0.0 in /  0 mm
22:57 9.8 °F /  -12.3 °C 7.7 °F /  -13.5 °C 1014.8 in /  34361.1 hPa Calm   1.6 mph /  2.6 km/h 87 % 0.0 in /  0 mm
23:02 9.9 °F /  -12.3 °C 7.8 °F /  -13.4 °C 1014.8 in /  34361.1 hPa Calm   1.6 mph /  2.6 km/h 87 % 0.0 in /  0 mm
23:12 9.7 °F /  -12.4 °C 7.8 °F /  -13.4 °C 1014.4 in /  34347.6 hPa Calm   3.2 mph /  5.1 km/h 88 % 0.0 in /  0 mm
23:17 9.6 °F /  -12.4 °C 7.7 °F /  -13.5 °C 1014.8 in /  34361.1 hPa Calm   3.2 mph /  5.1 km/h 88 % 0.0 in /  0 mm
23:22 9.7 °F /  -12.4 °C 7.8 °F /  -13.4 °C 1014.8 in /  34361.1 hPa Calm   3.2 mph /  5.1 km/h 88 % 0.0 in /  0 mm
23:27 9.6 °F /  -12.4 °C 7.7 °F /  -13.5 °C 1014.8 in /  34361.1 hPa Calm   3.2 mph /  5.1 km/h 88 % 0.0 in /  0 mm
23:32 9.6 °F /  -12.4 °C 7.7 °F /  -13.5 °C 1014.8 in /  34361.1 hPa WNW 1.6 mph /  2.6 km/h 3.2 mph /  5.1 km/h 88 % 0.0 in /  0 mm
23:37 9.6 °F /  -12.4 °C 7.9 °F /  -13.4 °C 1014.8 in /  34361.1 hPa Calm   3.2 mph /  5.1 km/h 89 % 0.0 in /  0 mm
23:42 9.6 °F /  -12.4 °C 7.7 °F /  -13.5 °C 1014.8 in /  34361.1 hPa Calm   3.2 mph /  5.1 km/h 88 % 0.0 in /  0 mm
23:47 9.5 °F /  -12.5 °C 7.6 °F /  -13.6 °C 1014.8 in /  34361.1 hPa Calm   1.6 mph /  2.6 km/h 88 % 0.0 in /  0 mm
23:52 9.4 °F /  -12.6 °C 7.7 °F /  -13.5 °C 1014.8 in /  34361.1 hPa WNW 1.6 mph /  2.6 km/h 1.6 mph /  2.6 km/h 89 % 0.0 in /  0 mm
23:57 9.3 °F /  -12.6 °C 7.6 °F /  -13.6 °C 1014.8 in /  34361.1 hPa WNW 1.6 mph /  2.6 km/h 3.2 mph /  5.1 km/h 89 % 0.0 in /  0 mm
Meteo18
Compliments of Weather Underground - 4 mb

Script developed by  Jim McMurry - jmcmurry@mwt.net Adapted for the template by  Wim van der Kuil - Leuven-Template.eu

You find our weather info also at:

European Weather Network

Weather Underground

Equipment we use:

Weather-station
Davis Vue

Weather-program
Meteobridge

Weather-server
Raspberry PI 2 B+

Provider
1 and 1

Davis Vue

Meteobridge

Raspberry PI 2 B+

1 and 1